Terminal Aerodrome Forecast
Issued by NWS Wilmington, OH

Current Version | Previous Version | Graphics & Text | Print | Product List | Glossary Off
Versions: 1 2 3 4 5 6 7 8 9 10 11 12 13 14 15 16 17 18 19 20 21 22 23 24 25 26 27 28 29 30 31

000
FTUS41 KILN 061100
TAFCVG
TAF
KCVG 061137Z 0612/0718 VRB03KT P6SM SKC
      TEMPO 0612/0613 5SM BR
     FM061300 19007KT P6SM SCT250
     FM062300 21008KT P6SM SCT100
     FM070900 22009KT P6SM SCT018 SCT120
      TEMPO 0710/0714 BKN018=

USA.gov is the U.S. government's official web portal to all federal, state and local government web resources and services.